sensor_id;sensor_type;location;lat;lon;timestamp;P1;durP1;ratioP1;P2;durP2;ratioP2
22543;SDS011;11438;52.044;8.716;2024-01-16T00:01:41;2.37;;;1.00;;
22543;SDS011;11438;52.044;8.716;2024-01-16T00:04:10;3.80;;;1.00;;
22543;SDS011;11438;52.044;8.716;2024-01-16T00:06:42;6.43;;;1.00;;
22543;SDS011;11438;52.044;8.716;2024-01-16T00:09:08;5.50;;;1.10;;
22543;SDS011;11438;52.044;8.716;2024-01-16T00:11:41;4.27;;;1.20;;
22543;SDS011;11438;52.044;8.716;2024-01-16T00:14:07;3.47;;;0.90;;
22543;SDS011;11438;52.044;8.716;2024-01-16T00:16:33;5.40;;;1.07;;
22543;SDS011;11438;52.044;8.716;2024-01-16T00:18:58;4.70;;;1.20;;
22543;SDS011;11438;52.044;8.716;2024-01-16T00:21:24;2.53;;;1.10;;
22543;SDS011;11438;52.044;8.716;2024-01-16T00:23:49;5.30;;;1.30;;
22543;SDS011;11438;52.044;8.716;2024-01-16T00:26:21;4.10;;;1.30;;
22543;SDS011;11438;52.044;8.716;2024-01-16T00:28:47;3.00;;;1.00;;
22543;SDS011;11438;52.044;8.716;2024-01-16T00:31:13;3.67;;;1.10;;
22543;SDS011;11438;52.044;8.716;2024-01-16T00:33:38;4.97;;;1.00;;
22543;SDS011;11438;52.044;8.716;2024-01-16T00:36:04;5.80;;;1.03;;
22543;SDS011;11438;52.044;8.716;2024-01-16T00:38:34;3.03;;;1.03;;
22543;SDS011;11438;52.044;8.716;2024-01-16T00:40:59;3.70;;;1.00;;
22543;SDS011;11438;52.044;8.716;2024-01-16T00:43:25;3.37;;;0.90;;
22543;SDS011;11438;52.044;8.716;2024-01-16T00:45:50;5.27;;;1.10;;
22543;SDS011;11438;52.044;8.716;2024-01-16T00:48:16;6.60;;;1.10;;
22543;SDS011;11438;52.044;8.716;2024-01-16T00:50:42;4.97;;;0.87;;
22543;SDS011;11438;52.044;8.716;2024-01-16T00:53:08;4.30;;;0.80;;
22543;SDS011;11438;52.044;8.716;2024-01-16T00:55:33;2.70;;;0.90;;
22543;SDS011;11438;52.044;8.716;2024-01-16T00:57:59;3.73;;;0.93;;
22543;SDS011;11438;52.044;8.716;2024-01-16T01:00:25;3.77;;;0.80;;
22543;SDS011;11438;52.044;8.716;2024-01-16T01:02:51;2.87;;;1.00;;
22543;SDS011;11438;52.044;8.716;2024-01-16T01:05:16;8.40;;;1.10;;
22543;SDS011;11438;52.044;8.716;2024-01-16T01:07:42;2.57;;;1.10;;
22543;SDS011;11438;52.044;8.716;2024-01-16T01:10:07;2.90;;;0.90;;
22543;SDS011;11438;52.044;8.716;2024-01-16T01:12:33;3.53;;;0.93;;
22543;SDS011;11438;52.044;8.716;2024-01-16T01:14:58;3.23;;;1.00;;
22543;SDS011;11438;52.044;8.716;2024-01-16T01:17:24;6.33;;;1.20;;
22543;SDS011;11438;52.044;8.716;2024-01-16T01:19:49;3.67;;;0.90;;
22543;SDS011;11438;52.044;8.716;2024-01-16T01:22:15;6.13;;;1.10;;
22543;SDS011;11438;52.044;8.716;2024-01-16T01:24:40;1.97;;;0.97;;
22543;SDS011;11438;52.044;8.716;2024-01-16T01:27:06;2.40;;;1.20;;
22543;SDS011;11438;52.044;8.716;2024-01-16T01:29:31;4.90;;;1.27;;
22543;SDS011;11438;52.044;8.716;2024-01-16T01:31:57;4.93;;;1.17;;
22543;SDS011;11438;52.044;8.716;2024-01-16T01:34:22;4.73;;;1.30;;
22543;SDS011;11438;52.044;8.716;2024-01-16T01:36:48;2.63;;;1.10;;
22543;SDS011;11438;52.044;8.716;2024-01-16T01:39:13;6.63;;;1.20;;
22543;SDS011;11438;52.044;8.716;2024-01-16T01:41:39;6.87;;;1.20;;
22543;SDS011;11438;52.044;8.716;2024-01-16T01:44:05;3.97;;;1.40;;
22543;SDS011;11438;52.044;8.716;2024-01-16T01:46:31;4.40;;;1.27;;
22543;SDS011;11438;52.044;8.716;2024-01-16T01:48:59;7.20;;;1.30;;
22543;SDS011;11438;52.044;8.716;2024-01-16T01:51:25;5.50;;;1.33;;
22543;SDS011;11438;52.044;8.716;2024-01-16T01:53:50;9.77;;;1.33;;
22543;SDS011;11438;52.044;8.716;2024-01-16T01:56:17;7.43;;;1.70;;
22543;SDS011;11438;52.044;8.716;2024-01-16T01:58:45;8.40;;;1.63;;
22543;SDS011;11438;52.044;8.716;2024-01-16T02:01:14;3.90;;;1.60;;
22543;SDS011;11438;52.044;8.716;2024-01-16T02:03:42;3.93;;;1.60;;
22543;SDS011;11438;52.044;8.716;2024-01-16T02:06:09;6.07;;;2.00;;
22543;SDS011;11438;52.044;8.716;2024-01-16T02:08:36;9.00;;;1.80;;
22543;SDS011;11438;52.044;8.716;2024-01-16T02:11:02;5.67;;;1.60;;
22543;SDS011;11438;52.044;8.716;2024-01-16T02:13:28;5.33;;;1.47;;
22543;SDS011;11438;52.044;8.716;2024-01-16T02:15:53;5.70;;;1.87;;
22543;SDS011;11438;52.044;8.716;2024-01-16T02:18:19;5.37;;;1.73;;
22543;SDS011;11438;52.044;8.716;2024-01-16T02:20:45;5.77;;;1.63;;
22543;SDS011;11438;52.044;8.716;2024-01-16T02:23:12;9.83;;;2.47;;
22543;SDS011;11438;52.044;8.716;2024-01-16T02:25:40;8.07;;;2.00;;
22543;SDS011;11438;52.044;8.716;2024-01-16T02:28:06;5.73;;;2.20;;
22543;SDS011;11438;52.044;8.716;2024-01-16T02:30:32;5.77;;;1.90;;
22543;SDS011;11438;52.044;8.716;2024-01-16T02:32:58;7.90;;;2.17;;
22543;SDS011;11438;52.044;8.716;2024-01-16T02:35:24;6.93;;;1.93;;
22543;SDS011;11438;52.044;8.716;2024-01-16T02:37:49;8.87;;;2.07;;
22543;SDS011;11438;52.044;8.716;2024-01-16T02:40:15;10.70;;;2.23;;
22543;SDS011;11438;52.044;8.716;2024-01-16T02:42:40;6.73;;;1.87;;
22543;SDS011;11438;52.044;8.716;2024-01-16T02:45:06;8.47;;;1.93;;
22543;SDS011;11438;52.044;8.716;2024-01-16T02:47:32;7.67;;;2.50;;
22543;SDS011;11438;52.044;8.716;2024-01-16T02:49:59;9.13;;;2.53;;
22543;SDS011;11438;52.044;8.716;2024-01-16T02:52:24;7.50;;;2.27;;
22543;SDS011;11438;52.044;8.716;2024-01-16T02:54:50;6.97;;;2.50;;
22543;SDS011;11438;52.044;8.716;2024-01-16T02:57:15;7.07;;;2.53;;
22543;SDS011;11438;52.044;8.716;2024-01-16T02:59:43;10.03;;;2.30;;
22543;SDS011;11438;52.044;8.716;2024-01-16T03:02:09;7.10;;;2.13;;
22543;SDS011;11438;52.044;8.716;2024-01-16T03:04:34;5.93;;;2.27;;
22543;SDS011;11438;52.044;8.716;2024-01-16T03:07:00;6.07;;;2.50;;
22543;SDS011;11438;52.044;8.716;2024-01-16T03:09:26;7.40;;;2.40;;
22543;SDS011;11438;52.044;8.716;2024-01-16T03:11:51;8.57;;;2.43;;
22543;SDS011;11438;52.044;8.716;2024-01-16T03:14:17;5.77;;;1.80;;
22543;SDS011;11438;52.044;8.716;2024-01-16T03:16:43;8.27;;;2.40;;
22543;SDS011;11438;52.044;8.716;2024-01-16T03:19:09;9.27;;;2.80;;
22543;SDS011;11438;52.044;8.716;2024-01-16T03:21:35;7.60;;;2.77;;
22543;SDS011;11438;52.044;8.716;2024-01-16T03:24:00;5.63;;;2.57;;
22543;SDS011;11438;52.044;8.716;2024-01-16T03:26:26;9.83;;;2.70;;
22543;SDS011;11438;52.044;8.716;2024-01-16T03:28:51;7.27;;;2.23;;
22543;SDS011;11438;52.044;8.716;2024-01-16T03:31:17;8.10;;;2.30;;
22543;SDS011;11438;52.044;8.716;2024-01-16T03:33:44;6.90;;;2.90;;
22543;SDS011;11438;52.044;8.716;2024-01-16T03:36:10;8.23;;;2.50;;
22543;SDS011;11438;52.044;8.716;2024-01-16T03:38:37;5.50;;;2.40;;
22543;SDS011;11438;52.044;8.716;2024-01-16T03:41:03;8.87;;;2.37;;
22543;SDS011;11438;52.044;8.716;2024-01-16T03:43:29;6.27;;;2.37;;
22543;SDS011;11438;52.044;8.716;2024-01-16T03:45:57;5.07;;;2.23;;
22543;SDS011;11438;52.044;8.716;2024-01-16T03:48:23;7.70;;;2.30;;
22543;SDS011;11438;52.044;8.716;2024-01-16T03:50:49;6.57;;;2.00;;
22543;SDS011;11438;52.044;8.716;2024-01-16T03:53:14;7.00;;;2.40;;
22543;SDS011;11438;52.044;8.716;2024-01-16T03:55:40;8.07;;;2.40;;
22543;SDS011;11438;52.044;8.716;2024-01-16T03:58:05;6.47;;;2.30;;
22543;SDS011;11438;52.044;8.716;2024-01-16T04:00:31;7.97;;;2.47;;
22543;SDS011;11438;52.044;8.716;2024-01-16T04:02:57;9.23;;;2.53;;
22543;SDS011;11438;52.044;8.716;2024-01-16T04:05:22;6.87;;;2.40;;
22543;SDS011;11438;52.044;8.716;2024-01-16T04:07:48;4.87;;;2.30;;
22543;SDS011;11438;52.044;8.716;2024-01-16T04:10:13;5.60;;;2.53;;
22543;SDS011;11438;52.044;8.716;2024-01-16T04:12:39;6.03;;;2.10;;
22543;SDS011;11438;52.044;8.716;2024-01-16T04:15:05;7.23;;;2.70;;
22543;SDS011;11438;52.044;8.716;2024-01-16T04:17:31;10.20;;;2.80;;
22543;SDS011;11438;52.044;8.716;2024-01-16T04:19:56;8.50;;;2.50;;
22543;SDS011;11438;52.044;8.716;2024-01-16T04:22:22;7.20;;;2.87;;
22543;SDS011;11438;52.044;8.716;2024-01-16T04:24:47;6.63;;;3.20;;
22543;SDS011;11438;52.044;8.716;2024-01-16T04:27:13;6.17;;;3.03;;
22543;SDS011;11438;52.044;8.716;2024-01-16T04:29:38;5.10;;;2.63;;
22543;SDS011;11438;52.044;8.716;2024-01-16T04:32:04;10.33;;;3.00;;
22543;SDS011;11438;52.044;8.716;2024-01-16T04:34:29;8.50;;;3.50;;
22543;SDS011;11438;52.044;8.716;2024-01-16T04:36:55;7.23;;;3.07;;
22543;SDS011;11438;52.044;8.716;2024-01-16T04:39:20;7.47;;;3.13;;
22543;SDS011;11438;52.044;8.716;2024-01-16T04:41:47;7.70;;;3.13;;
22543;SDS011;11438;52.044;8.716;2024-01-16T04:44:14;9.07;;;3.30;;
22543;SDS011;11438;52.044;8.716;2024-01-16T04:46:39;5.70;;;3.10;;
22543;SDS011;11438;52.044;8.716;2024-01-16T04:49:05;8.23;;;3.60;;
22543;SDS011;11438;52.044;8.716;2024-01-16T04:51:30;8.83;;;3.40;;
22543;SDS011;11438;52.044;8.716;2024-01-16T04:53:55;8.70;;;3.50;;
22543;SDS011;11438;52.044;8.716;2024-01-16T04:56:21;7.50;;;3.67;;
22543;SDS011;11438;52.044;8.716;2024-01-16T04:58:46;8.70;;;4.00;;
22543;SDS011;11438;52.044;8.716;2024-01-16T05:01:12;10.20;;;3.60;;
22543;SDS011;11438;52.044;8.716;2024-01-16T05:03:38;9.53;;;3.50;;
22543;SDS011;11438;52.044;8.716;2024-01-16T05:06:04;10.10;;;3.67;;
22543;SDS011;11438;52.044;8.716;2024-01-16T05:08:29;8.17;;;3.93;;
22543;SDS011;11438;52.044;8.716;2024-01-16T05:10:55;8.73;;;4.07;;
22543;SDS011;11438;52.044;8.716;2024-01-16T05:13:21;12.37;;;3.70;;
22543;SDS011;11438;52.044;8.716;2024-01-16T05:15:47;7.37;;;3.53;;
22543;SDS011;11438;52.044;8.716;2024-01-16T05:18:12;7.80;;;3.63;;
22543;SDS011;11438;52.044;8.716;2024-01-16T05:20:38;6.17;;;3.33;;
22543;SDS011;11438;52.044;8.716;2024-01-16T05:23:03;6.97;;;3.10;;
22543;SDS011;11438;52.044;8.716;2024-01-16T05:25:29;7.40;;;3.17;;
22543;SDS011;11438;52.044;8.716;2024-01-16T05:27:55;8.50;;;3.30;;
22543;SDS011;11438;52.044;8.716;2024-01-16T05:30:20;9.17;;;3.50;;
22543;SDS011;11438;52.044;8.716;2024-01-16T05:32:46;8.60;;;3.33;;
22543;SDS011;11438;52.044;8.716;2024-01-16T05:35:11;7.20;;;2.97;;
22543;SDS011;11438;52.044;8.716;2024-01-16T05:37:37;7.50;;;3.20;;
22543;SDS011;11438;52.044;8.716;2024-01-16T05:40:03;7.80;;;2.80;;
22543;SDS011;11438;52.044;8.716;2024-01-16T05:42:29;6.17;;;2.73;;
22543;SDS011;11438;52.044;8.716;2024-01-16T05:44:54;8.90;;;3.50;;
22543;SDS011;11438;52.044;8.716;2024-01-16T05:47:21;5.03;;;2.70;;
22543;SDS011;11438;52.044;8.716;2024-01-16T05:49:49;5.57;;;2.93;;
22543;SDS011;11438;52.044;8.716;2024-01-16T05:52:14;8.60;;;3.20;;
22543;SDS011;11438;52.044;8.716;2024-01-16T05:54:40;7.77;;;3.27;;
22543;SDS011;11438;52.044;8.716;2024-01-16T05:57:05;7.03;;;3.30;;
22543;SDS011;11438;52.044;8.716;2024-01-16T05:59:31;8.37;;;2.70;;
22543;SDS011;11438;52.044;8.716;2024-01-16T06:01:56;10.77;;;3.10;;
22543;SDS011;11438;52.044;8.716;2024-01-16T06:04:21;7.97;;;3.03;;
22543;SDS011;11438;52.044;8.716;2024-01-16T06:06:47;7.33;;;2.90;;
22543;SDS011;11438;52.044;8.716;2024-01-16T06:09:13;6.80;;;3.10;;
22543;SDS011;11438;52.044;8.716;2024-01-16T06:11:39;10.27;;;3.30;;
22543;SDS011;11438;52.044;8.716;2024-01-16T06:14:08;10.47;;;3.43;;
22543;SDS011;11438;52.044;8.716;2024-01-16T06:16:34;6.70;;;2.80;;
22543;SDS011;11438;52.044;8.716;2024-01-16T06:19:00;5.90;;;3.23;;
22543;SDS011;11438;52.044;8.716;2024-01-16T06:21:26;9.30;;;3.10;;
22543;SDS011;11438;52.044;8.716;2024-01-16T06:23:52;6.63;;;3.20;;
22543;SDS011;11438;52.044;8.716;2024-01-16T06:26:17;6.43;;;3.10;;
22543;SDS011;11438;52.044;8.716;2024-01-16T06:28:43;8.67;;;3.20;;
22543;SDS011;11438;52.044;8.716;2024-01-16T06:31:09;6.93;;;3.07;;
22543;SDS011;11438;52.044;8.716;2024-01-16T06:33:35;5.63;;;2.60;;
22543;SDS011;11438;52.044;8.716;2024-01-16T06:36:02;7.27;;;3.20;;
22543;SDS011;11438;52.044;8.716;2024-01-16T06:38:29;8.37;;;2.97;;
22543;SDS011;11438;52.044;8.716;2024-01-16T06:40:55;7.80;;;3.30;;
22543;SDS011;11438;52.044;8.716;2024-01-16T06:43:21;9.07;;;3.83;;
22543;SDS011;11438;52.044;8.716;2024-01-16T06:45:46;7.40;;;3.57;;
22543;SDS011;11438;52.044;8.716;2024-01-16T06:48:12;7.60;;;3.47;;
22543;SDS011;11438;52.044;8.716;2024-01-16T06:50:37;6.00;;;3.30;;
22543;SDS011;11438;52.044;8.716;2024-01-16T06:53:03;5.77;;;2.90;;
22543;SDS011;11438;52.044;8.716;2024-01-16T06:55:29;9.70;;;3.50;;
22543;SDS011;11438;52.044;8.716;2024-01-16T06:57:54;6.63;;;3.10;;
22543;SDS011;11438;52.044;8.716;2024-01-16T07:00:20;8.63;;;3.30;;
22543;SDS011;11438;52.044;8.716;2024-01-16T07:02:47;6.70;;;3.40;;
22543;SDS011;11438;52.044;8.716;2024-01-16T07:05:13;8.40;;;3.53;;
22543;SDS011;11438;52.044;8.716;2024-01-16T07:07:39;7.87;;;3.00;;
22543;SDS011;11438;52.044;8.716;2024-01-16T07:10:04;7.07;;;3.50;;
22543;SDS011;11438;52.044;8.716;2024-01-16T07:12:33;12.90;;;3.50;;
22543;SDS011;11438;52.044;8.716;2024-01-16T07:14:58;8.47;;;3.83;;
22543;SDS011;11438;52.044;8.716;2024-01-16T07:17:24;9.63;;;4.00;;
22543;SDS011;11438;52.044;8.716;2024-01-16T07:19:49;7.07;;;3.53;;
22543;SDS011;11438;52.044;8.716;2024-01-16T07:22:15;7.77;;;3.30;;
22543;SDS011;11438;52.044;8.716;2024-01-16T07:24:41;8.50;;;4.27;;
22543;SDS011;11438;52.044;8.716;2024-01-16T07:27:06;10.80;;;3.97;;
22543;SDS011;11438;52.044;8.716;2024-01-16T07:29:31;5.87;;;3.67;;
22543;SDS011;11438;52.044;8.716;2024-01-16T07:31:57;7.10;;;3.73;;
22543;SDS011;11438;52.044;8.716;2024-01-16T07:34:23;8.47;;;4.27;;
22543;SDS011;11438;52.044;8.716;2024-01-16T07:36:50;7.97;;;3.93;;
22543;SDS011;11438;52.044;8.716;2024-01-16T07:39:16;8.10;;;3.80;;
22543;SDS011;11438;52.044;8.716;2024-01-16T07:41:41;6.20;;;4.10;;
22543;SDS011;11438;52.044;8.716;2024-01-16T07:44:07;8.67;;;5.30;;
22543;SDS011;11438;52.044;8.716;2024-01-16T07:46:32;10.13;;;4.50;;
22543;SDS011;11438;52.044;8.716;2024-01-16T07:48:58;9.67;;;4.30;;
22543;SDS011;11438;52.044;8.716;2024-01-16T07:51:23;6.67;;;3.90;;
22543;SDS011;11438;52.044;8.716;2024-01-16T07:53:51;6.23;;;3.90;;
22543;SDS011;11438;52.044;8.716;2024-01-16T07:56:28;8.00;;;4.30;;
22543;SDS011;11438;52.044;8.716;2024-01-16T07:58:54;7.67;;;4.57;;
22543;SDS011;11438;52.044;8.716;2024-01-16T08:01:19;8.17;;;4.27;;
22543;SDS011;11438;52.044;8.716;2024-01-16T08:03:46;7.17;;;4.10;;
22543;SDS011;11438;52.044;8.716;2024-01-16T08:06:11;11.20;;;4.83;;
22543;SDS011;11438;52.044;8.716;2024-01-16T08:08:37;9.03;;;4.10;;
22543;SDS011;11438;52.044;8.716;2024-01-16T08:11:02;8.77;;;4.60;;
22543;SDS011;11438;52.044;8.716;2024-01-16T08:13:28;8.10;;;4.07;;
22543;SDS011;11438;52.044;8.716;2024-01-16T08:15:53;7.13;;;4.57;;
22543;SDS011;11438;52.044;8.716;2024-01-16T08:18:19;8.20;;;4.27;;
22543;SDS011;11438;52.044;8.716;2024-01-16T08:20:44;7.93;;;4.33;;
22543;SDS011;11438;52.044;8.716;2024-01-16T08:23:10;12.87;;;4.53;;
22543;SDS011;11438;52.044;8.716;2024-01-16T08:25:35;5.97;;;4.17;;
22543;SDS011;11438;52.044;8.716;2024-01-16T08:28:00;5.70;;;3.90;;
22543;SDS011;11438;52.044;8.716;2024-01-16T08:30:26;8.67;;;4.43;;
22543;SDS011;11438;52.044;8.716;2024-01-16T08:32:51;7.90;;;4.17;;
22543;SDS011;11438;52.044;8.716;2024-01-16T08:35:17;9.57;;;4.37;;
22543;SDS011;11438;52.044;8.716;2024-01-16T08:37:42;7.27;;;4.23;;
22543;SDS011;11438;52.044;8.716;2024-01-16T08:40:08;8.07;;;4.30;;
22543;SDS011;11438;52.044;8.716;2024-01-16T08:42:34;7.20;;;4.33;;
22543;SDS011;11438;52.044;8.716;2024-01-16T08:44:59;9.40;;;4.60;;
22543;SDS011;11438;52.044;8.716;2024-01-16T08:47:25;7.40;;;4.13;;
22543;SDS011;11438;52.044;8.716;2024-01-16T08:49:50;8.33;;;4.40;;
22543;SDS011;11438;52.044;8.716;2024-01-16T08:52:16;6.73;;;3.73;;
22543;SDS011;11438;52.044;8.716;2024-01-16T08:54:42;9.77;;;4.37;;
22543;SDS011;11438;52.044;8.716;2024-01-16T08:57:07;6.13;;;4.27;;
22543;SDS011;11438;52.044;8.716;2024-01-16T08:59:35;8.17;;;4.17;;
22543;SDS011;11438;52.044;8.716;2024-01-16T09:02:00;7.37;;;3.97;;
22543;SDS011;11438;52.044;8.716;2024-01-16T09:04:26;6.03;;;3.73;;
22543;SDS011;11438;52.044;8.716;2024-01-16T09:06:52;4.97;;;3.53;;
22543;SDS011;11438;52.044;8.716;2024-01-16T09:09:17;6.70;;;3.70;;
22543;SDS011;11438;52.044;8.716;2024-01-16T09:11:43;7.43;;;3.70;;
22543;SDS011;11438;52.044;8.716;2024-01-16T09:14:08;6.83;;;3.53;;
22543;SDS011;11438;52.044;8.716;2024-01-16T09:16:34;5.90;;;3.27;;
22543;SDS011;11438;52.044;8.716;2024-01-16T09:18:59;6.90;;;3.77;;
22543;SDS011;11438;52.044;8.716;2024-01-16T09:21:25;7.80;;;3.40;;
22543;SDS011;11438;52.044;8.716;2024-01-16T09:23:51;9.70;;;3.20;;
22543;SDS011;11438;52.044;8.716;2024-01-16T09:26:16;7.30;;;3.30;;
22543;SDS011;11438;52.044;8.716;2024-01-16T09:28:42;6.27;;;3.43;;
22543;SDS011;11438;52.044;8.716;2024-01-16T09:31:07;4.63;;;3.00;;
22543;SDS011;11438;52.044;8.716;2024-01-16T09:33:36;6.43;;;3.10;;
22543;SDS011;11438;52.044;8.716;2024-01-16T09:36:01;6.60;;;2.90;;
22543;SDS011;11438;52.044;8.716;2024-01-16T09:38:27;4.03;;;2.90;;
22543;SDS011;11438;52.044;8.716;2024-01-16T09:40:53;9.80;;;3.57;;
22543;SDS011;11438;52.044;8.716;2024-01-16T09:43:23;10.73;;;3.63;;
22543;SDS011;11438;52.044;8.716;2024-01-16T09:45:51;8.67;;;3.77;;
22543;SDS011;11438;52.044;8.716;2024-01-16T09:48:19;7.03;;;3.33;;
22543;SDS011;11438;52.044;8.716;2024-01-16T09:50:45;6.03;;;3.20;;
22543;SDS011;11438;52.044;8.716;2024-01-16T09:53:10;5.33;;;2.93;;
22543;SDS011;11438;52.044;8.716;2024-01-16T09:55:36;6.60;;;3.60;;
22543;SDS011;11438;52.044;8.716;2024-01-16T09:58:01;5.83;;;3.47;;
22543;SDS011;11438;52.044;8.716;2024-01-16T10:00:30;6.67;;;3.70;;
22543;SDS011;11438;52.044;8.716;2024-01-16T10:02:57;7.37;;;3.87;;
22543;SDS011;11438;52.044;8.716;2024-01-16T10:05:24;7.77;;;4.00;;
22543;SDS011;11438;52.044;8.716;2024-01-16T10:07:50;6.77;;;3.97;;
22543;SDS011;11438;52.044;8.716;2024-01-16T10:10:17;7.67;;;4.63;;
22543;SDS011;11438;52.044;8.716;2024-01-16T10:12:43;7.10;;;4.27;;
22543;SDS011;11438;52.044;8.716;2024-01-16T10:15:09;9.57;;;4.40;;
22543;SDS011;11438;52.044;8.716;2024-01-16T10:17:36;8.17;;;4.40;;
22543;SDS011;11438;52.044;8.716;2024-01-16T10:20:07;6.57;;;4.37;;
22543;SDS011;11438;52.044;8.716;2024-01-16T10:22:38;9.13;;;5.53;;
22543;SDS011;11438;52.044;8.716;2024-01-16T10:25:09;11.00;;;5.70;;
22543;SDS011;11438;52.044;8.716;2024-01-16T10:27:41;12.20;;;6.50;;
22543;SDS011;11438;52.044;8.716;2024-01-16T10:30:08;10.17;;;5.90;;
22543;SDS011;11438;52.044;8.716;2024-01-16T10:32:35;10.60;;;6.67;;
22543;SDS011;11438;52.044;8.716;2024-01-16T10:35:09;12.80;;;7.07;;
22543;SDS011;11438;52.044;8.716;2024-01-16T10:40:08;11.93;;;7.77;;
22543;SDS011;11438;52.044;8.716;2024-01-16T10:42:33;11.90;;;7.90;;
22543;SDS011;11438;52.044;8.716;2024-01-16T10:44:59;14.43;;;8.47;;
22543;SDS011;11438;52.044;8.716;2024-01-16T10:47:24;15.83;;;10.03;;
22543;SDS011;11438;52.044;8.716;2024-01-16T10:49:50;14.97;;;9.90;;
22543;SDS011;11438;52.044;8.716;2024-01-16T10:52:15;14.87;;;9.20;;
22543;SDS011;11438;52.044;8.716;2024-01-16T10:54:42;15.03;;;10.33;;
22543;SDS011;11438;52.044;8.716;2024-01-16T10:57:14;16.33;;;10.77;;
22543;SDS011;11438;52.044;8.716;2024-01-16T10:59:42;17.20;;;9.80;;
22543;SDS011;11438;52.044;8.716;2024-01-16T11:02:12;20.33;;;11.07;;
22543;SDS011;11438;52.044;8.716;2024-01-16T11:04:42;18.07;;;11.13;;
22543;SDS011;11438;52.044;8.716;2024-01-16T11:07:08;18.03;;;10.03;;
22543;SDS011;11438;52.044;8.716;2024-01-16T11:09:34;20.87;;;11.47;;
22543;SDS011;11438;52.044;8.716;2024-01-16T11:12:01;17.43;;;11.30;;
22543;SDS011;11438;52.044;8.716;2024-01-16T11:14:28;20.63;;;11.50;;
22543;SDS011;11438;52.044;8.716;2024-01-16T11:16:55;19.27;;;11.10;;
22543;SDS011;11438;52.044;8.716;2024-01-16T11:19:22;18.43;;;11.53;;
22543;SDS011;11438;52.044;8.716;2024-01-16T11:21:49;21.23;;;11.13;;
22543;SDS011;11438;52.044;8.716;2024-01-16T11:24:15;17.17;;;10.30;;
22543;SDS011;11438;52.044;8.716;2024-01-16T11:26:40;20.50;;;10.73;;
22543;SDS011;11438;52.044;8.716;2024-01-16T11:31:54;18.80;;;10.00;;
22543;SDS011;11438;52.044;8.716;2024-01-16T11:37:07;15.27;;;9.03;;
22543;SDS011;11438;52.044;8.716;2024-01-16T11:39:33;13.93;;;8.13;;
22543;SDS011;11438;52.044;8.716;2024-01-16T11:41:59;12.83;;;8.33;;
22543;SDS011;11438;52.044;8.716;2024-01-16T11:44:46;14.90;;;8.27;;
22543;SDS011;11438;52.044;8.716;2024-01-16T11:47:18;15.60;;;8.17;;
22543;SDS011;11438;52.044;8.716;2024-01-16T11:49:48;11.27;;;7.00;;
22543;SDS011;11438;52.044;8.716;2024-01-16T11:52:15;12.43;;;6.80;;
22543;SDS011;11438;52.044;8.716;2024-01-16T12:00:47;11.10;;;6.43;;
22543;SDS011;11438;52.044;8.716;2024-01-16T12:03:20;11.87;;;6.10;;
22543;SDS011;11438;52.044;8.716;2024-01-16T12:05:59;9.80;;;5.60;;
22543;SDS011;11438;52.044;8.716;2024-01-16T12:08:25;10.90;;;5.53;;
22543;SDS011;11438;52.044;8.716;2024-01-16T12:10:51;9.20;;;5.03;;
22543;SDS011;11438;52.044;8.716;2024-01-16T12:13:17;11.30;;;4.40;;
22543;SDS011;11438;52.044;8.716;2024-01-16T12:15:42;12.00;;;4.40;;
22543;SDS011;11438;52.044;8.716;2024-01-16T12:18:08;9.80;;;3.83;;
22543;SDS011;11438;52.044;8.716;2024-01-16T12:20:35;10.67;;;4.43;;
22543;SDS011;11438;52.044;8.716;2024-01-16T12:23:02;10.47;;;4.33;;
22543;SDS011;11438;52.044;8.716;2024-01-16T12:25:29;10.53;;;3.60;;
22543;SDS011;11438;52.044;8.716;2024-01-16T12:27:57;9.33;;;3.37;;
22543;SDS011;11438;52.044;8.716;2024-01-16T12:30:34;10.60;;;3.33;;
22543;SDS011;11438;52.044;8.716;2024-01-16T12:33:04;12.80;;;3.40;;
22543;SDS011;11438;52.044;8.716;2024-01-16T12:35:35;5.53;;;2.93;;
22543;SDS011;11438;52.044;8.716;2024-01-16T12:38:01;10.67;;;3.43;;
22543;SDS011;11438;52.044;8.716;2024-01-16T12:40:28;9.90;;;3.27;;
22543;SDS011;11438;52.044;8.716;2024-01-16T12:42:54;10.93;;;3.23;;
22543;SDS011;11438;52.044;8.716;2024-01-16T12:45:20;8.37;;;2.93;;
22543;SDS011;11438;52.044;8.716;2024-01-16T12:47:50;8.50;;;2.90;;
22543;SDS011;11438;52.044;8.716;2024-01-16T12:50:21;10.80;;;3.00;;
22543;SDS011;11438;52.044;8.716;2024-01-16T12:52:48;8.93;;;2.67;;
22543;SDS011;11438;52.044;8.716;2024-01-16T12:55:34;9.17;;;3.00;;
22543;SDS011;11438;52.044;8.716;2024-01-16T12:58:14;6.37;;;2.70;;
22543;SDS011;11438;52.044;8.716;2024-01-16T13:00:42;8.43;;;2.93;;
22543;SDS011;11438;52.044;8.716;2024-01-16T13:03:14;8.27;;;2.90;;
22543;SDS011;11438;52.044;8.716;2024-01-16T13:05:44;8.67;;;2.70;;
22543;SDS011;11438;52.044;8.716;2024-01-16T13:08:17;8.37;;;3.00;;
22543;SDS011;11438;52.044;8.716;2024-01-16T13:10:44;11.53;;;2.90;;
22543;SDS011;11438;52.044;8.716;2024-01-16T13:13:16;7.67;;;2.30;;
22543;SDS011;11438;52.044;8.716;2024-01-16T13:15:43;6.77;;;2.60;;
22543;SDS011;11438;52.044;8.716;2024-01-16T13:20:45;5.77;;;2.57;;
22543;SDS011;11438;52.044;8.716;2024-01-16T13:23:12;6.90;;;2.40;;
22543;SDS011;11438;52.044;8.716;2024-01-16T13:25:39;7.67;;;2.70;;
22543;SDS011;11438;52.044;8.716;2024-01-16T13:28:04;5.60;;;2.80;;
22543;SDS011;11438;52.044;8.716;2024-01-16T13:30:32;9.67;;;2.20;;
22543;SDS011;11438;52.044;8.716;2024-01-16T13:32:58;8.13;;;2.73;;
22543;SDS011;11438;52.044;8.716;2024-01-16T13:35:23;9.47;;;2.50;;
22543;SDS011;11438;52.044;8.716;2024-01-16T13:37:49;10.23;;;3.00;;
22543;SDS011;11438;52.044;8.716;2024-01-16T13:40:15;5.67;;;2.27;;
22543;SDS011;11438;52.044;8.716;2024-01-16T13:42:43;8.40;;;2.70;;
22543;SDS011;11438;52.044;8.716;2024-01-16T13:45:10;6.07;;;2.30;;
22543;SDS011;11438;52.044;8.716;2024-01-16T13:47:38;11.47;;;2.63;;
22543;SDS011;11438;52.044;8.716;2024-01-16T13:50:04;8.13;;;2.80;;
22543;SDS011;11438;52.044;8.716;2024-01-16T13:52:30;6.90;;;2.80;;
22543;SDS011;11438;52.044;8.716;2024-01-16T13:54:56;9.87;;;2.83;;
22543;SDS011;11438;52.044;8.716;2024-01-16T13:57:22;8.40;;;2.77;;
22543;SDS011;11438;52.044;8.716;2024-01-16T13:59:48;6.87;;;2.80;;
22543;SDS011;11438;52.044;8.716;2024-01-16T14:02:14;8.73;;;2.53;;
22543;SDS011;11438;52.044;8.716;2024-01-16T14:04:39;6.73;;;3.00;;
22543;SDS011;11438;52.044;8.716;2024-01-16T14:07:05;9.77;;;3.13;;
22543;SDS011;11438;52.044;8.716;2024-01-16T14:09:34;11.60;;;2.87;;
22543;SDS011;11438;52.044;8.716;2024-01-16T14:12:00;8.90;;;3.23;;
22543;SDS011;11438;52.044;8.716;2024-01-16T14:14:26;8.77;;;2.90;;
22543;SDS011;11438;52.044;8.716;2024-01-16T14:16:52;7.10;;;2.67;;
22543;SDS011;11438;52.044;8.716;2024-01-16T14:19:19;6.43;;;2.73;;
22543;SDS011;11438;52.044;8.716;2024-01-16T14:21:45;7.60;;;2.77;;
22543;SDS011;11438;52.044;8.716;2024-01-16T14:24:12;5.27;;;2.63;;
22543;SDS011;11438;52.044;8.716;2024-01-16T14:26:37;7.80;;;2.77;;
22543;SDS011;11438;52.044;8.716;2024-01-16T14:29:03;7.93;;;2.67;;
22543;SDS011;11438;52.044;8.716;2024-01-16T14:31:29;9.60;;;2.77;;
22543;SDS011;11438;52.044;8.716;2024-01-16T14:33:55;5.13;;;2.50;;
22543;SDS011;11438;52.044;8.716;2024-01-16T14:36:20;6.80;;;2.90;;
22543;SDS011;11438;52.044;8.716;2024-01-16T14:38:46;11.43;;;3.23;;
22543;SDS011;11438;52.044;8.716;2024-01-16T14:41:13;6.87;;;3.20;;
22543;SDS011;11438;52.044;8.716;2024-01-16T14:43:39;8.67;;;2.80;;
22543;SDS011;11438;52.044;8.716;2024-01-16T14:46:05;7.83;;;3.10;;
22543;SDS011;11438;52.044;8.716;2024-01-16T14:48:35;10.23;;;3.43;;
22543;SDS011;11438;52.044;8.716;2024-01-16T14:51:01;10.33;;;2.90;;
22543;SDS011;11438;52.044;8.716;2024-01-16T14:53:26;8.10;;;3.27;;
22543;SDS011;11438;52.044;8.716;2024-01-16T14:55:52;10.10;;;2.97;;
22543;SDS011;11438;52.044;8.716;2024-01-16T14:58:18;8.57;;;3.07;;